Terminal Aerodrome Forecast
Issued by NWS

Home | Current Version | Previous Version | Graphics & Text | Print | Product List | Glossary On
Versions: 1 2 3 4 5 6 7 8 9 10 11 12 13 14 15 16 17 18 19 20 21
000
FTUS43 KICT 281404 AAB
TAFCNU
TAF AMD
KCNU 281404Z 2814/0112 12007KT 5SM -SN BR OVC025
      TEMPO 2814/2818 1SM -SN BR OVC012
     FM281800 14008KT 6SM -SN BR OVC025
     FM010500 VRB04KT 4SM -SN BR OVC008=

USA.gov is the U.S. government's official web portal to all federal, state and local government web resources and services.